sensor_id;sensor_type;location;lat;lon;timestamp;temperature;humidity
7174;DHT22;3628;48.654;8.932;2024-02-04T00:00:14;7.90;99.90
7174;DHT22;3628;48.654;8.932;2024-02-04T00:02:40;7.90;99.90
7174;DHT22;3628;48.654;8.932;2024-02-04T00:05:06;7.90;99.90
7174;DHT22;3628;48.654;8.932;2024-02-04T00:07:32;7.90;99.90
7174;DHT22;3628;48.654;8.932;2024-02-04T00:09:57;7.90;99.90
7174;DHT22;3628;48.654;8.932;2024-02-04T00:12:23;7.90;99.90
7174;DHT22;3628;48.654;8.932;2024-02-04T00:14:48;7.90;99.90
7174;DHT22;3628;48.654;8.932;2024-02-04T00:17:17;7.90;99.90
7174;DHT22;3628;48.654;8.932;2024-02-04T00:19:43;7.90;99.90
7174;DHT22;3628;48.654;8.932;2024-02-04T00:22:08;7.90;99.90
7174;DHT22;3628;48.654;8.932;2024-02-04T00:24:34;7.90;99.90
7174;DHT22;3628;48.654;8.932;2024-02-04T00:26:59;7.80;99.90
7174;DHT22;3628;48.654;8.932;2024-02-04T00:29:25;7.80;99.90
7174;DHT22;3628;48.654;8.932;2024-02-04T00:31:51;7.70;99.90
7174;DHT22;3628;48.654;8.932;2024-02-04T00:34:16;7.80;99.90
7174;DHT22;3628;48.654;8.932;2024-02-04T00:36:42;7.80;99.90
7174;DHT22;3628;48.654;8.932;2024-02-04T00:41:48;7.70;99.90
7174;DHT22;3628;48.654;8.932;2024-02-04T00:44:13;7.70;99.90
7174;DHT22;3628;48.654;8.932;2024-02-04T00:46:39;7.70;99.90
7174;DHT22;3628;48.654;8.932;2024-02-04T00:49:04;7.60;99.90
7174;DHT22;3628;48.654;8.932;2024-02-04T00:51:30;7.60;99.90
7174;DHT22;3628;48.654;8.932;2024-02-04T00:53:55;7.60;99.90
7174;DHT22;3628;48.654;8.932;2024-02-04T00:56:21;7.50;99.90
7174;DHT22;3628;48.654;8.932;2024-02-04T00:58:46;7.40;99.90
7174;DHT22;3628;48.654;8.932;2024-02-04T01:01:12;7.40;99.90
7174;DHT22;3628;48.654;8.932;2024-02-04T01:03:38;7.40;99.90
7174;DHT22;3628;48.654;8.932;2024-02-04T01:06:03;7.30;99.90
7174;DHT22;3628;48.654;8.932;2024-02-04T01:08:30;7.20;99.90
7174;DHT22;3628;48.654;8.932;2024-02-04T01:10:55;7.20;99.90
7174;DHT22;3628;48.654;8.932;2024-02-04T01:13:21;7.20;99.90
7174;DHT22;3628;48.654;8.932;2024-02-04T01:15:46;7.20;99.90
7174;DHT22;3628;48.654;8.932;2024-02-04T01:18:12;7.20;99.90
7174;DHT22;3628;48.654;8.932;2024-02-04T01:20:37;7.20;99.90
7174;DHT22;3628;48.654;8.932;2024-02-04T01:23:03;7.10;99.90
7174;DHT22;3628;48.654;8.932;2024-02-04T01:25:28;7.10;99.90
7174;DHT22;3628;48.654;8.932;2024-02-04T01:27:54;7.10;99.90
7174;DHT22;3628;48.654;8.932;2024-02-04T01:30:19;7.10;99.90
7174;DHT22;3628;48.654;8.932;2024-02-04T01:32:45;7.10;99.90
7174;DHT22;3628;48.654;8.932;2024-02-04T01:35:11;7.10;99.90
7174;DHT22;3628;48.654;8.932;2024-02-04T01:37:37;7.10;99.90
7174;DHT22;3628;48.654;8.932;2024-02-04T01:40:03;7.10;99.90
7174;DHT22;3628;48.654;8.932;2024-02-04T01:42:31;7.00;99.90
7174;DHT22;3628;48.654;8.932;2024-02-04T01:44:56;7.00;99.90
7174;DHT22;3628;48.654;8.932;2024-02-04T01:47:22;7.00;99.90
7174;DHT22;3628;48.654;8.932;2024-02-04T01:49:47;7.00;99.90
7174;DHT22;3628;48.654;8.932;2024-02-04T01:52:13;7.00;99.90
7174;DHT22;3628;48.654;8.932;2024-02-04T01:54:39;7.00;99.90
7174;DHT22;3628;48.654;8.932;2024-02-04T01:57:06;7.10;99.90
7174;DHT22;3628;48.654;8.932;2024-02-04T01:59:32;7.10;99.90
7174;DHT22;3628;48.654;8.932;2024-02-04T02:01:59;7.10;99.90
7174;DHT22;3628;48.654;8.932;2024-02-04T02:04:25;7.10;99.90
7174;DHT22;3628;48.654;8.932;2024-02-04T02:06:53;7.10;99.90
7174;DHT22;3628;48.654;8.932;2024-02-04T02:09:19;7.10;99.90
7174;DHT22;3628;48.654;8.932;2024-02-04T02:14:41;7.10;99.90
7174;DHT22;3628;48.654;8.932;2024-02-04T02:17:12;7.10;99.90
7174;DHT22;3628;48.654;8.932;2024-02-04T02:19:59;7.10;99.90
7174;DHT22;3628;48.654;8.932;2024-02-04T02:22:57;7.10;99.90
7174;DHT22;3628;48.654;8.932;2024-02-04T02:25:27;7.10;99.90
7174;DHT22;3628;48.654;8.932;2024-02-04T02:27:53;7.10;99.90
7174;DHT22;3628;48.654;8.932;2024-02-04T02:30:19;7.10;99.90
7174;DHT22;3628;48.654;8.932;2024-02-04T02:32:46;7.10;99.90
7174;DHT22;3628;48.654;8.932;2024-02-04T02:35:18;7.10;99.90
7174;DHT22;3628;48.654;8.932;2024-02-04T02:38:10;7.10;99.90
7174;DHT22;3628;48.654;8.932;2024-02-04T02:41:05;7.00;99.90
7174;DHT22;3628;48.654;8.932;2024-02-04T02:43:33;7.10;99.90
7174;DHT22;3628;48.654;8.932;2024-02-04T02:45:59;7.10;99.90
7174;DHT22;3628;48.654;8.932;2024-02-04T02:48:25;7.10;99.90
7174;DHT22;3628;48.654;8.932;2024-02-04T02:50:51;7.10;99.90
7174;DHT22;3628;48.654;8.932;2024-02-04T02:53:16;7.10;99.90
7174;DHT22;3628;48.654;8.932;2024-02-04T02:55:45;7.10;99.90
7174;DHT22;3628;48.654;8.932;2024-02-04T02:58:12;7.10;99.90
7174;DHT22;3628;48.654;8.932;2024-02-04T03:00:37;7.10;99.90
7174;DHT22;3628;48.654;8.932;2024-02-04T03:03:03;7.10;99.90
7174;DHT22;3628;48.654;8.932;2024-02-04T03:05:32;7.10;99.90
7174;DHT22;3628;48.654;8.932;2024-02-04T03:07:58;7.10;99.90
7174;DHT22;3628;48.654;8.932;2024-02-04T03:10:24;7.10;99.90
7174;DHT22;3628;48.654;8.932;2024-02-04T03:12:49;7.10;99.90
7174;DHT22;3628;48.654;8.932;2024-02-04T03:15:15;7.10;99.90
7174;DHT22;3628;48.654;8.932;2024-02-04T03:17:42;7.10;99.90
7174;DHT22;3628;48.654;8.932;2024-02-04T03:20:08;7.10;99.90
7174;DHT22;3628;48.654;8.932;2024-02-04T03:22:34;7.10;99.90
7174;DHT22;3628;48.654;8.932;2024-02-04T03:25:00;7.10;99.90
7174;DHT22;3628;48.654;8.932;2024-02-04T03:27:26;7.10;99.90
7174;DHT22;3628;48.654;8.932;2024-02-04T03:29:51;7.10;99.90
7174;DHT22;3628;48.654;8.932;2024-02-04T03:32:17;7.10;99.90
7174;DHT22;3628;48.654;8.932;2024-02-04T03:34:42;7.10;99.90
7174;DHT22;3628;48.654;8.932;2024-02-04T03:37:08;7.10;99.90
7174;DHT22;3628;48.654;8.932;2024-02-04T03:39:34;7.10;99.90
7174;DHT22;3628;48.654;8.932;2024-02-04T03:41:59;7.10;99.90
7174;DHT22;3628;48.654;8.932;2024-02-04T03:44:25;7.10;99.90
7174;DHT22;3628;48.654;8.932;2024-02-04T03:46:50;7.10;99.90
7174;DHT22;3628;48.654;8.932;2024-02-04T03:49:16;7.10;99.90
7174;DHT22;3628;48.654;8.932;2024-02-04T03:51:42;7.10;99.90
7174;DHT22;3628;48.654;8.932;2024-02-04T03:54:08;7.00;99.90
7174;DHT22;3628;48.654;8.932;2024-02-04T03:56:33;7.00;99.90
7174;DHT22;3628;48.654;8.932;2024-02-04T03:58:59;7.10;99.90
7174;DHT22;3628;48.654;8.932;2024-02-04T04:01:24;7.10;99.90
7174;DHT22;3628;48.654;8.932;2024-02-04T04:03:50;7.00;99.90
7174;DHT22;3628;48.654;8.932;2024-02-04T04:06:16;7.00;99.90
7174;DHT22;3628;48.654;8.932;2024-02-04T04:08:41;7.00;99.90
7174;DHT22;3628;48.654;8.932;2024-02-04T04:11:10;6.90;99.90
7174;DHT22;3628;48.654;8.932;2024-02-04T04:13:37;6.90;99.90
7174;DHT22;3628;48.654;8.932;2024-02-04T04:16:03;6.90;99.90
7174;DHT22;3628;48.654;8.932;2024-02-04T04:18:29;6.90;99.90
7174;DHT22;3628;48.654;8.932;2024-02-04T04:20:55;6.90;99.90
7174;DHT22;3628;48.654;8.932;2024-02-04T04:23:21;6.90;99.90
7174;DHT22;3628;48.654;8.932;2024-02-04T04:25:46;6.90;99.90
7174;DHT22;3628;48.654;8.932;2024-02-04T04:28:12;6.90;99.90
7174;DHT22;3628;48.654;8.932;2024-02-04T04:30:37;6.90;99.90
7174;DHT22;3628;48.654;8.932;2024-02-04T04:33:03;6.90;99.90
7174;DHT22;3628;48.654;8.932;2024-02-04T04:35:28;6.90;99.90
7174;DHT22;3628;48.654;8.932;2024-02-04T04:37:54;6.90;99.90
7174;DHT22;3628;48.654;8.932;2024-02-04T04:40:19;6.90;99.90
7174;DHT22;3628;48.654;8.932;2024-02-04T04:42:45;6.80;99.90
7174;DHT22;3628;48.654;8.932;2024-02-04T04:45:10;6.80;99.90
7174;DHT22;3628;48.654;8.932;2024-02-04T04:47:37;6.70;99.90
7174;DHT22;3628;48.654;8.932;2024-02-04T04:50:03;6.70;99.90
7174;DHT22;3628;48.654;8.932;2024-02-04T04:52:29;6.60;99.90
7174;DHT22;3628;48.654;8.932;2024-02-04T04:54:55;6.70;99.90
7174;DHT22;3628;48.654;8.932;2024-02-04T04:57:21;6.60;99.90
7174;DHT22;3628;48.654;8.932;2024-02-04T04:59:47;6.60;99.90
7174;DHT22;3628;48.654;8.932;2024-02-04T05:02:12;6.60;99.90
7174;DHT22;3628;48.654;8.932;2024-02-04T05:04:38;6.60;99.90
7174;DHT22;3628;48.654;8.932;2024-02-04T05:07:03;6.60;99.90
7174;DHT22;3628;48.654;8.932;2024-02-04T05:09:29;6.70;99.90
7174;DHT22;3628;48.654;8.932;2024-02-04T05:11:55;6.70;99.90
7174;DHT22;3628;48.654;8.932;2024-02-04T05:14:20;6.70;99.90
7174;DHT22;3628;48.654;8.932;2024-02-04T05:16:46;6.70;99.90
7174;DHT22;3628;48.654;8.932;2024-02-04T05:19:12;6.70;99.90
7174;DHT22;3628;48.654;8.932;2024-02-04T05:21:39;6.70;99.90
7174;DHT22;3628;48.654;8.932;2024-02-04T05:24:05;6.70;99.90
7174;DHT22;3628;48.654;8.932;2024-02-04T05:26:31;6.80;99.90
7174;DHT22;3628;48.654;8.932;2024-02-04T05:28:56;6.80;99.90
7174;DHT22;3628;48.654;8.932;2024-02-04T05:31:22;6.80;99.90
7174;DHT22;3628;48.654;8.932;2024-02-04T05:33:47;6.90;99.90
7174;DHT22;3628;48.654;8.932;2024-02-04T05:36:13;6.90;99.90
7174;DHT22;3628;48.654;8.932;2024-02-04T05:38:39;6.90;99.90
7174;DHT22;3628;48.654;8.932;2024-02-04T05:41:04;7.00;99.90
7174;DHT22;3628;48.654;8.932;2024-02-04T05:43:30;7.00;99.90
7174;DHT22;3628;48.654;8.932;2024-02-04T05:45:55;7.00;99.90
7174;DHT22;3628;48.654;8.932;2024-02-04T05:48:21;7.00;99.90
7174;DHT22;3628;48.654;8.932;2024-02-04T05:50:47;7.00;99.90
7174;DHT22;3628;48.654;8.932;2024-02-04T05:53:12;7.10;99.90
7174;DHT22;3628;48.654;8.932;2024-02-04T05:55:39;7.00;99.90
7174;DHT22;3628;48.654;8.932;2024-02-04T05:58:04;7.00;99.90
7174;DHT22;3628;48.654;8.932;2024-02-04T06:00:30;7.00;99.90
7174;DHT22;3628;48.654;8.932;2024-02-04T06:02:55;7.00;99.90
7174;DHT22;3628;48.654;8.932;2024-02-04T06:05:21;6.90;99.90
7174;DHT22;3628;48.654;8.932;2024-02-04T06:07:46;6.90;99.90
7174;DHT22;3628;48.654;8.932;2024-02-04T06:10:12;6.90;99.90
7174;DHT22;3628;48.654;8.932;2024-02-04T06:12:37;6.90;99.90
7174;DHT22;3628;48.654;8.932;2024-02-04T06:15:11;6.90;99.90
7174;DHT22;3628;48.654;8.932;2024-02-04T06:17:37;6.90;99.90
7174;DHT22;3628;48.654;8.932;2024-02-04T06:20:02;6.90;99.90
7174;DHT22;3628;48.654;8.932;2024-02-04T06:22:28;6.90;99.90
7174;DHT22;3628;48.654;8.932;2024-02-04T06:24:54;6.90;99.90
7174;DHT22;3628;48.654;8.932;2024-02-04T06:27:19;6.90;99.90
7174;DHT22;3628;48.654;8.932;2024-02-04T06:29:45;6.90;99.90
7174;DHT22;3628;48.654;8.932;2024-02-04T06:32:10;6.90;99.90
7174;DHT22;3628;48.654;8.932;2024-02-04T06:34:36;6.90;99.90
7174;DHT22;3628;48.654;8.932;2024-02-04T06:37:02;6.90;99.90
7174;DHT22;3628;48.654;8.932;2024-02-04T06:39:28;6.90;99.90
7174;DHT22;3628;48.654;8.932;2024-02-04T06:41:53;6.90;99.90
7174;DHT22;3628;48.654;8.932;2024-02-04T06:44:19;7.00;99.90
7174;DHT22;3628;48.654;8.932;2024-02-04T06:46:44;6.90;99.90
7174;DHT22;3628;48.654;8.932;2024-02-04T06:49:10;6.90;99.90
7174;DHT22;3628;48.654;8.932;2024-02-04T06:51:35;7.00;99.90
7174;DHT22;3628;48.654;8.932;2024-02-04T06:54:01;6.90;99.90
7174;DHT22;3628;48.654;8.932;2024-02-04T06:56:27;7.00;99.90
7174;DHT22;3628;48.654;8.932;2024-02-04T06:58:52;7.00;99.90
7174;DHT22;3628;48.654;8.932;2024-02-04T07:01:18;7.00;99.90
7174;DHT22;3628;48.654;8.932;2024-02-04T07:03:43;7.00;99.90
7174;DHT22;3628;48.654;8.932;2024-02-04T07:06:10;7.00;99.90
7174;DHT22;3628;48.654;8.932;2024-02-04T07:08:35;7.00;99.90
7174;DHT22;3628;48.654;8.932;2024-02-04T07:11:01;7.00;99.90
7174;DHT22;3628;48.654;8.932;2024-02-04T07:13:27;7.00;99.90
7174;DHT22;3628;48.654;8.932;2024-02-04T07:15:52;7.00;99.90
7174;DHT22;3628;48.654;8.932;2024-02-04T07:18:19;7.00;99.90
7174;DHT22;3628;48.654;8.932;2024-02-04T07:20:47;7.00;99.90
7174;DHT22;3628;48.654;8.932;2024-02-04T07:23:13;7.00;99.90
7174;DHT22;3628;48.654;8.932;2024-02-04T07:25:38;7.00;99.90
7174;DHT22;3628;48.654;8.932;2024-02-04T07:28:04;7.00;99.90
7174;DHT22;3628;48.654;8.932;2024-02-04T07:30:29;7.00;99.90
7174;DHT22;3628;48.654;8.932;2024-02-04T07:32:55;6.90;99.90
7174;DHT22;3628;48.654;8.932;2024-02-04T07:35:20;6.90;99.90
7174;DHT22;3628;48.654;8.932;2024-02-04T07:37:47;6.90;99.90
7174;DHT22;3628;48.654;8.932;2024-02-04T07:40:12;6.90;99.90
7174;DHT22;3628;48.654;8.932;2024-02-04T07:42:38;6.90;99.90
7174;DHT22;3628;48.654;8.932;2024-02-04T07:45:03;6.90;99.90
7174;DHT22;3628;48.654;8.932;2024-02-04T07:47:34;6.90;99.90
7174;DHT22;3628;48.654;8.932;2024-02-04T07:50:00;6.90;99.90
7174;DHT22;3628;48.654;8.932;2024-02-04T07:52:25;6.90;99.90
7174;DHT22;3628;48.654;8.932;2024-02-04T07:54:50;6.90;99.90
7174;DHT22;3628;48.654;8.932;2024-02-04T07:57:16;6.90;99.90
7174;DHT22;3628;48.654;8.932;2024-02-04T07:59:42;7.00;99.90
7174;DHT22;3628;48.654;8.932;2024-02-04T08:02:08;7.00;99.90
7174;DHT22;3628;48.654;8.932;2024-02-04T08:04:33;7.10;99.90
7174;DHT22;3628;48.654;8.932;2024-02-04T08:06:59;7.10;99.90
7174;DHT22;3628;48.654;8.932;2024-02-04T08:09:24;7.10;99.90
7174;DHT22;3628;48.654;8.932;2024-02-04T08:11:50;7.20;99.90
7174;DHT22;3628;48.654;8.932;2024-02-04T08:14:15;7.20;99.90
7174;DHT22;3628;48.654;8.932;2024-02-04T08:16:43;7.20;99.90
7174;DHT22;3628;48.654;8.932;2024-02-04T08:19:08;7.30;99.90
7174;DHT22;3628;48.654;8.932;2024-02-04T08:21:34;7.30;99.90
7174;DHT22;3628;48.654;8.932;2024-02-04T08:23:59;7.40;99.90
7174;DHT22;3628;48.654;8.932;2024-02-04T08:26:25;7.40;99.90
7174;DHT22;3628;48.654;8.932;2024-02-04T08:28:50;7.50;99.90
7174;DHT22;3628;48.654;8.932;2024-02-04T08:31:16;7.60;99.90
7174;DHT22;3628;48.654;8.932;2024-02-04T08:33:42;7.60;99.90
7174;DHT22;3628;48.654;8.932;2024-02-04T08:36:07;7.60;99.90
7174;DHT22;3628;48.654;8.932;2024-02-04T08:38:36;7.70;99.90
7174;DHT22;3628;48.654;8.932;2024-02-04T08:41:02;7.80;99.90
7174;DHT22;3628;48.654;8.932;2024-02-04T08:43:27;7.90;99.90
7174;DHT22;3628;48.654;8.932;2024-02-04T08:45:53;8.00;99.90
7174;DHT22;3628;48.654;8.932;2024-02-04T08:48:18;8.10;99.90
7174;DHT22;3628;48.654;8.932;2024-02-04T08:50:44;8.10;99.90
7174;DHT22;3628;48.654;8.932;2024-02-04T08:53:10;8.20;99.90
7174;DHT22;3628;48.654;8.932;2024-02-04T08:55:35;8.20;99.90
7174;DHT22;3628;48.654;8.932;2024-02-04T08:58:00;8.40;99.90
7174;DHT22;3628;48.654;8.932;2024-02-04T09:00:26;8.40;99.90
7174;DHT22;3628;48.654;8.932;2024-02-04T09:02:52;8.50;99.90
7174;DHT22;3628;48.654;8.932;2024-02-04T09:05:17;8.60;99.90
7174;DHT22;3628;48.654;8.932;2024-02-04T09:07:44;8.60;99.90
7174;DHT22;3628;48.654;8.932;2024-02-04T09:10:09;8.60;99.90
7174;DHT22;3628;48.654;8.932;2024-02-04T09:12:35;8.60;99.90
7174;DHT22;3628;48.654;8.932;2024-02-04T09:15:00;8.50;99.90
7174;DHT22;3628;48.654;8.932;2024-02-04T09:17:26;8.60;99.90
7174;DHT22;3628;48.654;8.932;2024-02-04T09:19:51;8.60;99.90
7174;DHT22;3628;48.654;8.932;2024-02-04T09:22:17;8.60;99.90
7174;DHT22;3628;48.654;8.932;2024-02-04T09:24:43;8.60;99.90
7174;DHT22;3628;48.654;8.932;2024-02-04T09:27:08;8.50;99.90
7174;DHT22;3628;48.654;8.932;2024-02-04T09:29:34;8.70;99.90
7174;DHT22;3628;48.654;8.932;2024-02-04T09:31:59;8.60;99.90
7174;DHT22;3628;48.654;8.932;2024-02-04T09:34:25;8.70;99.90
7174;DHT22;3628;48.654;8.932;2024-02-04T09:36:50;8.70;99.90
7174;DHT22;3628;48.654;8.932;2024-02-04T09:39:18;8.90;99.90
7174;DHT22;3628;48.654;8.932;2024-02-04T09:41:44;9.00;99.90
7174;DHT22;3628;48.654;8.932;2024-02-04T09:44:10;9.10;99.90
7174;DHT22;3628;48.654;8.932;2024-02-04T09:46:37;9.10;99.90
7174;DHT22;3628;48.654;8.932;2024-02-04T09:49:02;9.20;99.90
7174;DHT22;3628;48.654;8.932;2024-02-04T09:51:29;9.40;99.90
7174;DHT22;3628;48.654;8.932;2024-02-04T09:53:59;9.40;99.90
7174;DHT22;3628;48.654;8.932;2024-02-04T09:56:28;9.40;99.90
7174;DHT22;3628;48.654;8.932;2024-02-04T09:58:53;9.30;99.90
7174;DHT22;3628;48.654;8.932;2024-02-04T10:01:19;9.30;99.90
7174;DHT22;3628;48.654;8.932;2024-02-04T10:03:47;9.30;99.90
7174;DHT22;3628;48.654;8.932;2024-02-04T10:06:12;9.40;99.90
7174;DHT22;3628;48.654;8.932;2024-02-04T10:08:38;9.50;99.90
7174;DHT22;3628;48.654;8.932;2024-02-04T10:11:04;9.70;99.90
7174;DHT22;3628;48.654;8.932;2024-02-04T10:13:29;9.70;99.90
7174;DHT22;3628;48.654;8.932;2024-02-04T10:15:55;10.10;99.90
7174;DHT22;3628;48.654;8.932;2024-02-04T10:18:21;10.30;99.90
7174;DHT22;3628;48.654;8.932;2024-02-04T10:20:47;10.70;99.90
7174;DHT22;3628;48.654;8.932;2024-02-04T10:23:12;10.90;99.90
7174;DHT22;3628;48.654;8.932;2024-02-04T10:25:38;11.20;99.90
7174;DHT22;3628;48.654;8.932;2024-02-04T10:28:04;11.20;99.90
7174;DHT22;3628;48.654;8.932;2024-02-04T10:30:30;11.20;99.90
7174;DHT22;3628;48.654;8.932;2024-02-04T10:32:55;11.40;99.90
7174;DHT22;3628;48.654;8.932;2024-02-04T10:35:21;11.50;99.90
7174;DHT22;3628;48.654;8.932;2024-02-04T10:37:49;11.60;99.90
7174;DHT22;3628;48.654;8.932;2024-02-04T10:40:14;11.70;99.90
7174;DHT22;3628;48.654;8.932;2024-02-04T10:42:42;11.70;99.90
7174;DHT22;3628;48.654;8.932;2024-02-04T10:45:09;11.60;99.90
7174;DHT22;3628;48.654;8.932;2024-02-04T10:47:40;11.50;99.90
7174;DHT22;3628;48.654;8.932;2024-02-04T10:50:06;11.50;99.90
7174;DHT22;3628;48.654;8.932;2024-02-04T10:52:39;11.40;99.90
7174;DHT22;3628;48.654;8.932;2024-02-04T10:55:11;11.40;99.90
7174;DHT22;3628;48.654;8.932;2024-02-04T10:57:38;11.50;99.90
7174;DHT22;3628;48.654;8.932;2024-02-04T11:00:05;11.50;99.90
7174;DHT22;3628;48.654;8.932;2024-02-04T11:02:36;11.70;99.90
7174;DHT22;3628;48.654;8.932;2024-02-04T11:05:04;11.70;99.90
7174;DHT22;3628;48.654;8.932;2024-02-04T11:07:32;11.70;99.90
7174;DHT22;3628;48.654;8.932;2024-02-04T11:09:58;11.60;99.90
7174;DHT22;3628;48.654;8.932;2024-02-04T11:12:24;11.70;99.90
7174;DHT22;3628;48.654;8.932;2024-02-04T11:14:54;11.80;99.90
7174;DHT22;3628;48.654;8.932;2024-02-04T11:17:57;11.80;99.90
7174;DHT22;3628;48.654;8.932;2024-02-04T11:23:13;12.00;99.90
7174;DHT22;3628;48.654;8.932;2024-02-04T11:25:45;12.10;99.90
7174;DHT22;3628;48.654;8.932;2024-02-04T11:28:12;12.30;99.90
7174;DHT22;3628;48.654;8.932;2024-02-04T11:30:38;12.40;99.90
7174;DHT22;3628;48.654;8.932;2024-02-04T11:33:05;12.60;99.90
7174;DHT22;3628;48.654;8.932;2024-02-04T11:35:32;12.80;99.90
7174;DHT22;3628;48.654;8.932;2024-02-04T11:37:58;12.70;99.90
7174;DHT22;3628;48.654;8.932;2024-02-04T11:40:31;12.40;99.90
7174;DHT22;3628;48.654;8.932;2024-02-04T11:43:10;12.30;99.90
7174;DHT22;3628;48.654;8.932;2024-02-04T11:45:43;12.30;99.90
7174;DHT22;3628;48.654;8.932;2024-02-04T11:48:10;12.20;99.90
7174;DHT22;3628;48.654;8.932;2024-02-04T11:50:39;12.10;99.90
7174;DHT22;3628;48.654;8.932;2024-02-04T11:53:07;11.70;99.90
7174;DHT22;3628;48.654;8.932;2024-02-04T11:55:34;11.40;99.90
7174;DHT22;3628;48.654;8.932;2024-02-04T11:58:00;11.30;99.90
7174;DHT22;3628;48.654;8.932;2024-02-04T12:00:26;11.20;99.90
7174;DHT22;3628;48.654;8.932;2024-02-04T12:05:28;11.20;99.90
7174;DHT22;3628;48.654;8.932;2024-02-04T12:07:54;11.20;99.90
7174;DHT22;3628;48.654;8.932;2024-02-04T12:10:20;11.30;99.90
7174;DHT22;3628;48.654;8.932;2024-02-04T12:12:47;11.50;99.90
7174;DHT22;3628;48.654;8.932;2024-02-04T12:15:14;11.60;99.90
7174;DHT22;3628;48.654;8.932;2024-02-04T12:17:40;11.70;99.90
7174;DHT22;3628;48.654;8.932;2024-02-04T12:20:05;11.80;99.90
7174;DHT22;3628;48.654;8.932;2024-02-04T12:22:32;11.70;99.90
7174;DHT22;3628;48.654;8.932;2024-02-04T12:24:58;11.80;99.90
7174;DHT22;3628;48.654;8.932;2024-02-04T12:27:26;11.80;99.90
7174;DHT22;3628;48.654;8.932;2024-02-04T12:29:52;11.90;99.90
7174;DHT22;3628;48.654;8.932;2024-02-04T12:32:18;11.80;99.90
7174;DHT22;3628;48.654;8.932;2024-02-04T12:34:48;11.80;99.90
7174;DHT22;3628;48.654;8.932;2024-02-04T12:37:14;11.70;99.90
7174;DHT22;3628;48.654;8.932;2024-02-04T12:39:39;11.70;99.90
7174;DHT22;3628;48.654;8.932;2024-02-04T12:42:05;11.50;99.90
7174;DHT22;3628;48.654;8.932;2024-02-04T12:44:31;11.50;99.90
7174;DHT22;3628;48.654;8.932;2024-02-04T12:46:57;11.60;99.90
7174;DHT22;3628;48.654;8.932;2024-02-04T12:49:22;11.60;99.90
7174;DHT22;3628;48.654;8.932;2024-02-04T12:51:49;11.60;99.90
7174;DHT22;3628;48.654;8.932;2024-02-04T12:54:14;11.60;99.90
7174;DHT22;3628;48.654;8.932;2024-02-04T12:56:45;11.60;99.90
7174;DHT22;3628;48.654;8.932;2024-02-04T12:59:22;11.70;99.90
7174;DHT22;3628;48.654;8.932;2024-02-04T13:01:54;11.60;99.90
7174;DHT22;3628;48.654;8.932;2024-02-04T13:04:21;11.50;99.90
7174;DHT22;3628;48.654;8.932;2024-02-04T13:06:47;11.40;99.90
7174;DHT22;3628;48.654;8.932;2024-02-04T13:09:15;11.40;99.90
7174;DHT22;3628;48.654;8.932;2024-02-04T13:11:41;11.40;99.90
7174;DHT22;3628;48.654;8.932;2024-02-04T13:14:07;11.40;99.90
7174;DHT22;3628;48.654;8.932;2024-02-04T13:16:33;11.20;99.90
7174;DHT22;3628;48.654;8.932;2024-02-04T13:19:01;11.10;99.90
7174;DHT22;3628;48.654;8.932;2024-02-04T13:21:28;10.90;99.90
7174;DHT22;3628;48.654;8.932;2024-02-04T13:23:53;10.80;99.90
7174;DHT22;3628;48.654;8.932;2024-02-04T13:26:19;10.80;99.90
7174;DHT22;3628;48.654;8.932;2024-02-04T13:28:45;10.90;99.90
7174;DHT22;3628;48.654;8.932;2024-02-04T13:31:10;10.90;99.90
7174;DHT22;3628;48.654;8.932;2024-02-04T13:33:38;10.90;99.90
7174;DHT22;3628;48.654;8.932;2024-02-04T13:36:04;10.90;99.90
7174;DHT22;3628;48.654;8.932;2024-02-04T13:38:29;10.90;99.90
7174;DHT22;3628;48.654;8.932;2024-02-04T13:40:55;10.70;99.90
7174;DHT22;3628;48.654;8.932;2024-02-04T13:43:20;10.70;99.90
7174;DHT22;3628;48.654;8.932;2024-02-04T13:45:47;10.80;99.90
7174;DHT22;3628;48.654;8.932;2024-02-04T13:48:12;10.80;99.90
7174;DHT22;3628;48.654;8.932;2024-02-04T13:50:38;10.80;99.90
7174;DHT22;3628;48.654;8.932;2024-02-04T13:53:03;10.70;99.90
7174;DHT22;3628;48.654;8.932;2024-02-04T13:55:29;10.70;99.90
7174;DHT22;3628;48.654;8.932;2024-02-04T13:57:55;10.70;99.90
7174;DHT22;3628;48.654;8.932;2024-02-04T14:00:20;10.80;99.90
7174;DHT22;3628;48.654;8.932;2024-02-04T14:02:46;10.70;99.90
7174;DHT22;3628;48.654;8.932;2024-02-04T14:05:11;10.70;99.90
7174;DHT22;3628;48.654;8.932;2024-02-04T14:07:37;10.60;99.90
7174;DHT22;3628;48.654;8.932;2024-02-04T14:10:04;10.60;99.90
7174;DHT22;3628;48.654;8.932;2024-02-04T14:12:29;10.60;99.90
7174;DHT22;3628;48.654;8.932;2024-02-04T14:14:55;10.50;99.90
7174;DHT22;3628;48.654;8.932;2024-02-04T14:17:20;10.40;99.90
7174;DHT22;3628;48.654;8.932;2024-02-04T14:19:46;10.30;99.90
7174;DHT22;3628;48.654;8.932;2024-02-04T14:22:15;10.30;99.90
7174;DHT22;3628;48.654;8.932;2024-02-04T14:24:41;10.30;99.90
7174;DHT22;3628;48.654;8.932;2024-02-04T14:27:07;10.20;99.90
7174;DHT22;3628;48.654;8.932;2024-02-04T14:29:32;10.20;99.90
7174;DHT22;3628;48.654;8.932;2024-02-04T14:31:58;10.20;99.90
7174;DHT22;3628;48.654;8.932;2024-02-04T14:34:23;10.20;99.90
7174;DHT22;3628;48.654;8.932;2024-02-04T14:36:49;10.20;99.90
7174;DHT22;3628;48.654;8.932;2024-02-04T14:39:15;10.30;99.90
7174;DHT22;3628;48.654;8.932;2024-02-04T14:41:41;10.30;99.90
7174;DHT22;3628;48.654;8.932;2024-02-04T14:44:06;10.30;99.90
7174;DHT22;3628;48.654;8.932;2024-02-04T14:46:35;10.30;99.90
7174;DHT22;3628;48.654;8.932;2024-02-04T14:49:00;10.20;99.90
7174;DHT22;3628;48.654;8.932;2024-02-04T14:51:26;10.20;99.90
7174;DHT22;3628;48.654;8.932;2024-02-04T14:53:51;10.10;99.90
7174;DHT22;3628;48.654;8.932;2024-02-04T14:56:17;10.10;99.90
7174;DHT22;3628;48.654;8.932;2024-02-04T14:58:42;10.00;99.90
7174;DHT22;3628;48.654;8.932;2024-02-04T15:01:08;9.90;99.90
7174;DHT22;3628;48.654;8.932;2024-02-04T15:03:34;9.90;99.90
7174;DHT22;3628;48.654;8.932;2024-02-04T15:06:00;9.80;99.90
7174;DHT22;3628;48.654;8.932;2024-02-04T15:08:25;9.80;99.90
7174;DHT22;3628;48.654;8.932;2024-02-04T15:10:51;9.80;99.90
7174;DHT22;3628;48.654;8.932;2024-02-04T15:13:17;9.80;99.90
7174;DHT22;3628;48.654;8.932;2024-02-04T15:15:42;9.80;99.90
7174;DHT22;3628;48.654;8.932;2024-02-04T15:18:09;9.80;99.90
7174;DHT22;3628;48.654;8.932;2024-02-04T15:20:35;9.80;99.90
7174;DHT22;3628;48.654;8.932;2024-02-04T15:23:02;9.90;99.90
7174;DHT22;3628;48.654;8.932;2024-02-04T15:25:28;9.90;99.90
7174;DHT22;3628;48.654;8.932;2024-02-04T15:27:55;9.80;99.90
7174;DHT22;3628;48.654;8.932;2024-02-04T15:30:21;9.80;99.90
7174;DHT22;3628;48.654;8.932;2024-02-04T15:32:47;9.70;99.90
7174;DHT22;3628;48.654;8.932;2024-02-04T15:35:13;9.60;99.90
7174;DHT22;3628;48.654;8.932;2024-02-04T15:37:39;9.60;99.90
7174;DHT22;3628;48.654;8.932;2024-02-04T15:40:05;9.50;99.90
7174;DHT22;3628;48.654;8.932;2024-02-04T15:42:30;9.60;99.90
7174;DHT22;3628;48.654;8.932;2024-02-04T15:44:56;9.50;99.90
7174;DHT22;3628;48.654;8.932;2024-02-04T15:47:23;9.50;99.90
7174;DHT22;3628;48.654;8.932;2024-02-04T15:49:49;9.40;99.90
7174;DHT22;3628;48.654;8.932;2024-02-04T15:52:14;9.40;99.90
7174;DHT22;3628;48.654;8.932;2024-02-04T15:54:41;9.40;99.90
7174;DHT22;3628;48.654;8.932;2024-02-04T15:57:09;9.30;99.90
7174;DHT22;3628;48.654;8.932;2024-02-04T16:00:04;9.20;99.90
7174;DHT22;3628;48.654;8.932;2024-02-04T16:02:46;9.10;99.90
7174;DHT22;3628;48.654;8.932;2024-02-04T16:05:14;9.10;99.90
7174;DHT22;3628;48.654;8.932;2024-02-04T16:07:40;9.00;99.90
7174;DHT22;3628;48.654;8.932;2024-02-04T16:10:06;9.00;99.90
7174;DHT22;3628;48.654;8.932;2024-02-04T16:12:34;9.00;99.90
7174;DHT22;3628;48.654;8.932;2024-02-04T16:15:00;9.00;99.90
7174;DHT22;3628;48.654;8.932;2024-02-04T16:17:30;9.00;99.90